sensor_id;sensor_type;location;lat;lon;timestamp;temperature;humidity
10441;DHT22;5268;49.346;9.522;2023-08-01T03:05:32;18.50;99.90
10441;DHT22;5268;49.346;9.522;2023-08-01T03:10:34;18.50;99.90
10441;DHT22;5268;49.346;9.522;2023-08-01T03:15:36;18.50;99.90
10441;DHT22;5268;49.346;9.522;2023-08-01T03:20:40;18.40;99.90
10441;DHT22;5268;49.346;9.522;2023-08-01T03:25:42;18.50;99.90
10441;DHT22;5268;49.346;9.522;2023-08-01T03:30:44;18.50;99.90
10441;DHT22;5268;49.346;9.522;2023-08-01T03:35:47;18.50;99.90
10441;DHT22;5268;49.346;9.522;2023-08-01T03:40:49;18.50;99.90
10441;DHT22;5268;49.346;9.522;2023-08-01T03:45:51;18.50;99.90
10441;DHT22;5268;49.346;9.522;2023-08-01T03:50:55;18.50;99.90
10441;DHT22;5268;49.346;9.522;2023-08-01T03:55:57;18.50;99.90
10441;DHT22;5268;49.346;9.522;2023-08-01T04:00:59;18.40;99.90
10441;DHT22;5268;49.346;9.522;2023-08-01T04:06:02;18.50;99.90
10441;DHT22;5268;49.346;9.522;2023-08-01T04:11:04;18.50;99.90
10441;DHT22;5268;49.346;9.522;2023-08-01T04:16:06;18.50;99.90
10441;DHT22;5268;49.346;9.522;2023-08-01T04:21:13;18.50;99.90
10441;DHT22;5268;49.346;9.522;2023-08-01T04:26:15;18.50;99.90
10441;DHT22;5268;49.346;9.522;2023-08-01T04:31:17;18.50;99.90
10441;DHT22;5268;49.346;9.522;2023-08-01T04:36:20;18.50;99.90
10441;DHT22;5268;49.346;9.522;2023-08-01T04:41:22;18.50;99.90
10441;DHT22;5268;49.346;9.522;2023-08-01T04:46:24;18.50;99.90
10441;DHT22;5268;49.346;9.522;2023-08-01T04:51:27;18.50;99.90
10441;DHT22;5268;49.346;9.522;2023-08-01T04:56:29;18.40;99.90
10441;DHT22;5268;49.346;9.522;2023-08-01T05:01:31;18.40;99.90
10441;DHT22;5268;49.346;9.522;2023-08-01T05:06:34;18.40;99.90
10441;DHT22;5268;49.346;9.522;2023-08-01T05:11:36;18.40;99.90
10441;DHT22;5268;49.346;9.522;2023-08-01T05:16:38;18.40;99.90
10441;DHT22;5268;49.346;9.522;2023-08-01T05:21:42;18.40;99.90
10441;DHT22;5268;49.346;9.522;2023-08-01T05:26:44;18.40;99.90
10441;DHT22;5268;49.346;9.522;2023-08-01T05:31:46;18.40;99.90
10441;DHT22;5268;49.346;9.522;2023-08-01T05:36:49;18.40;99.90
10441;DHT22;5268;49.346;9.522;2023-08-01T05:41:54;18.50;99.90
10441;DHT22;5268;49.346;9.522;2023-08-01T05:46:56;18.50;99.90
10441;DHT22;5268;49.346;9.522;2023-08-01T05:52:00;18.50;99.90
10441;DHT22;5268;49.346;9.522;2023-08-01T05:57:02;18.50;99.90
10441;DHT22;5268;49.346;9.522;2023-08-01T06:02:04;18.40;99.90
10441;DHT22;5268;49.346;9.522;2023-08-01T06:07:08;18.40;99.90
10441;DHT22;5268;49.346;9.522;2023-08-01T06:12:09;18.40;99.90
10441;DHT22;5268;49.346;9.522;2023-08-01T06:17:11;18.40;99.90
10441;DHT22;5268;49.346;9.522;2023-08-01T06:22:15;18.40;99.90
10441;DHT22;5268;49.346;9.522;2023-08-01T06:27:17;18.40;99.90
10441;DHT22;5268;49.346;9.522;2023-08-01T06:32:19;18.40;99.90
10441;DHT22;5268;49.346;9.522;2023-08-01T06:37:22;18.40;99.90
10441;DHT22;5268;49.346;9.522;2023-08-01T06:42:25;18.40;99.90
10441;DHT22;5268;49.346;9.522;2023-08-01T06:47:27;18.30;99.90
10441;DHT22;5268;49.346;9.522;2023-08-01T06:52:30;18.30;99.90
10441;DHT22;5268;49.346;9.522;2023-08-01T06:57:33;18.20;99.90
10441;DHT22;5268;49.346;9.522;2023-08-01T07:02:35;18.20;99.90
10441;DHT22;5268;49.346;9.522;2023-08-01T07:07:38;18.20;99.90
10441;DHT22;5268;49.346;9.522;2023-08-01T07:12:40;18.10;99.90
10441;DHT22;5268;49.346;9.522;2023-08-01T07:17:42;18.10;99.90
10441;DHT22;5268;49.346;9.522;2023-08-01T07:22:46;18.10;99.90
10441;DHT22;5268;49.346;9.522;2023-08-01T07:27:48;18.10;99.90
10441;DHT22;5268;49.346;9.522;2023-08-01T07:32:50;18.10;99.90
10441;DHT22;5268;49.346;9.522;2023-08-01T07:37:53;18.10;99.90
10441;DHT22;5268;49.346;9.522;2023-08-01T07:42:55;18.10;99.90
10441;DHT22;5268;49.346;9.522;2023-08-01T07:47:57;18.00;99.90
10441;DHT22;5268;49.346;9.522;2023-08-01T07:53:00;18.00;99.90
10441;DHT22;5268;49.346;9.522;2023-08-01T07:58:02;18.00;99.90
10441;DHT22;5268;49.346;9.522;2023-08-01T08:03:04;18.00;99.90
10441;DHT22;5268;49.346;9.522;2023-08-01T08:08:10;18.00;99.90
10441;DHT22;5268;49.346;9.522;2023-08-01T08:13:12;18.00;99.90
10441;DHT22;5268;49.346;9.522;2023-08-01T08:18:14;18.00;99.90
10441;DHT22;5268;49.346;9.522;2023-08-01T08:23:17;18.10;99.90
10441;DHT22;5268;49.346;9.522;2023-08-01T08:28:28;18.20;99.90
10441;DHT22;5268;49.346;9.522;2023-08-01T08:33:31;18.30;99.90
10441;DHT22;5268;49.346;9.522;2023-08-01T08:38:35;18.50;99.90
10441;DHT22;5268;49.346;9.522;2023-08-01T08:43:37;18.60;99.90
10441;DHT22;5268;49.346;9.522;2023-08-01T08:48:40;18.70;99.90
10441;DHT22;5268;49.346;9.522;2023-08-01T08:53:45;18.80;99.90
10441;DHT22;5268;49.346;9.522;2023-08-01T08:58:47;18.90;99.90
10441;DHT22;5268;49.346;9.522;2023-08-01T09:03:50;19.10;99.90
10441;DHT22;5268;49.346;9.522;2023-08-01T09:08:58;19.20;99.90
10441;DHT22;5268;49.346;9.522;2023-08-01T09:14:02;19.20;99.90
10441;DHT22;5268;49.346;9.522;2023-08-01T09:19:06;19.30;99.90
10441;DHT22;5268;49.346;9.522;2023-08-01T09:24:09;19.30;99.90
10441;DHT22;5268;49.346;9.522;2023-08-01T09:29:12;19.40;99.90
10441;DHT22;5268;49.346;9.522;2023-08-01T09:34:21;19.30;99.90
10441;DHT22;5268;49.346;9.522;2023-08-01T09:39:25;19.30;99.90
10441;DHT22;5268;49.346;9.522;2023-08-01T09:44:28;19.20;99.90
10441;DHT22;5268;49.346;9.522;2023-08-01T09:49:30;19.30;99.90
10441;DHT22;5268;49.346;9.522;2023-08-01T09:54:34;19.30;99.90
10441;DHT22;5268;49.346;9.522;2023-08-01T09:59:36;19.50;99.90
10441;DHT22;5268;49.346;9.522;2023-08-01T10:04:39;19.70;99.90
10441;DHT22;5268;49.346;9.522;2023-08-01T10:09:42;19.80;99.90
10441;DHT22;5268;49.346;9.522;2023-08-01T10:14:45;19.80;99.90
10441;DHT22;5268;49.346;9.522;2023-08-01T10:19:49;19.80;99.90
10441;DHT22;5268;49.346;9.522;2023-08-01T10:24:53;19.80;99.90
10441;DHT22;5268;49.346;9.522;2023-08-01T10:29:59;20.00;99.90
10441;DHT22;5268;49.346;9.522;2023-08-01T10:35:02;20.10;99.90
10441;DHT22;5268;49.346;9.522;2023-08-01T10:40:07;20.50;99.90
10441;DHT22;5268;49.346;9.522;2023-08-01T10:45:20;20.80;99.90
10441;DHT22;5268;49.346;9.522;2023-08-01T10:50:23;20.90;99.90
10441;DHT22;5268;49.346;9.522;2023-08-01T10:55:26;21.00;99.90
10441;DHT22;5268;49.346;9.522;2023-08-01T11:00:28;21.20;99.90
10441;DHT22;5268;49.346;9.522;2023-08-01T11:05:30;21.30;99.90
10441;DHT22;5268;49.346;9.522;2023-08-01T11:10:34;21.40;99.90
10441;DHT22;5268;49.346;9.522;2023-08-01T11:15:37;21.40;99.90
10441;DHT22;5268;49.346;9.522;2023-08-01T11:20:39;21.30;99.90
10441;DHT22;5268;49.346;9.522;2023-08-01T11:25:44;21.40;99.90
10441;DHT22;5268;49.346;9.522;2023-08-01T11:30:50;21.50;99.90
10441;DHT22;5268;49.346;9.522;2023-08-01T11:35:52;21.80;99.90
10441;DHT22;5268;49.346;9.522;2023-08-01T11:40:58;22.10;99.90
10441;DHT22;5268;49.346;9.522;2023-08-01T11:46:00;22.30;99.90
10441;DHT22;5268;49.346;9.522;2023-08-01T11:51:02;22.60;99.90
10441;DHT22;5268;49.346;9.522;2023-08-01T11:56:06;22.80;99.90
10441;DHT22;5268;49.346;9.522;2023-08-01T12:01:10;23.00;99.90
10441;DHT22;5268;49.346;9.522;2023-08-01T12:06:12;23.10;99.90
10441;DHT22;5268;49.346;9.522;2023-08-01T12:11:20;23.00;99.90
10441;DHT22;5268;49.346;9.522;2023-08-01T12:16:22;22.80;99.90
10441;DHT22;5268;49.346;9.522;2023-08-01T12:21:24;22.70;99.90
10441;DHT22;5268;49.346;9.522;2023-08-01T12:26:28;22.70;99.90
10441;DHT22;5268;49.346;9.522;2023-08-01T12:31:30;22.70;99.90
10441;DHT22;5268;49.346;9.522;2023-08-01T12:36:32;22.50;99.90
10441;DHT22;5268;49.346;9.522;2023-08-01T12:41:35;22.10;99.90
10441;DHT22;5268;49.346;9.522;2023-08-01T12:46:37;21.60;99.90
10441;DHT22;5268;49.346;9.522;2023-08-01T12:51:39;21.20;99.90
10441;DHT22;5268;49.346;9.522;2023-08-01T12:56:43;21.30;99.90
10441;DHT22;5268;49.346;9.522;2023-08-01T13:01:46;21.50;99.90
10441;DHT22;5268;49.346;9.522;2023-08-01T13:06:48;21.80;99.90
10441;DHT22;5268;49.346;9.522;2023-08-01T13:11:51;22.10;99.90
10441;DHT22;5268;49.346;9.522;2023-08-01T13:16:53;22.00;99.90
10441;DHT22;5268;49.346;9.522;2023-08-01T13:21:55;21.90;99.90
10441;DHT22;5268;49.346;9.522;2023-08-01T13:26:59;21.80;99.90
10441;DHT22;5268;49.346;9.522;2023-08-01T13:32:01;21.80;99.90
10441;DHT22;5268;49.346;9.522;2023-08-01T13:37:03;21.80;99.90
10441;DHT22;5268;49.346;9.522;2023-08-01T13:42:06;22.00;99.90
10441;DHT22;5268;49.346;9.522;2023-08-01T13:47:08;22.10;99.90
10441;DHT22;5268;49.346;9.522;2023-08-01T13:52:10;22.20;99.90
10441;DHT22;5268;49.346;9.522;2023-08-01T13:57:14;22.30;99.90
10441;DHT22;5268;49.346;9.522;2023-08-01T14:02:16;22.30;99.90
10441;DHT22;5268;49.346;9.522;2023-08-01T14:07:18;22.30;99.90
10441;DHT22;5268;49.346;9.522;2023-08-01T14:12:21;22.30;99.90
10441;DHT22;5268;49.346;9.522;2023-08-01T14:17:25;22.30;99.90
10441;DHT22;5268;49.346;9.522;2023-08-01T14:22:27;22.20;99.90
10441;DHT22;5268;49.346;9.522;2023-08-01T14:27:30;22.30;99.90
10441;DHT22;5268;49.346;9.522;2023-08-01T14:32:32;22.50;99.90
10441;DHT22;5268;49.346;9.522;2023-08-01T14:37:34;22.50;99.90
10441;DHT22;5268;49.346;9.522;2023-08-01T14:42:38;22.50;99.90
10441;DHT22;5268;49.346;9.522;2023-08-01T14:47:40;22.50;99.90
10441;DHT22;5268;49.346;9.522;2023-08-01T14:52:43;22.60;99.90
10441;DHT22;5268;49.346;9.522;2023-08-01T14:57:46;22.50;99.90
10441;DHT22;5268;49.346;9.522;2023-08-01T15:02:48;22.60;99.90
10441;DHT22;5268;49.346;9.522;2023-08-01T15:07:50;22.70;99.90
10441;DHT22;5268;49.346;9.522;2023-08-01T15:12:53;22.80;99.90
10441;DHT22;5268;49.346;9.522;2023-08-01T15:17:56;22.80;99.90
10441;DHT22;5268;49.346;9.522;2023-08-01T15:22:58;22.80;99.90
10441;DHT22;5268;49.346;9.522;2023-08-01T15:28:01;22.70;99.90
10441;DHT22;5268;49.346;9.522;2023-08-01T15:33:03;22.80;99.90
10441;DHT22;5268;49.346;9.522;2023-08-01T15:38:08;22.90;99.90
10441;DHT22;5268;49.346;9.522;2023-08-01T15:43:11;22.90;99.90
10441;DHT22;5268;49.346;9.522;2023-08-01T15:48:13;23.00;99.90
10441;DHT22;5268;49.346;9.522;2023-08-01T15:53:15;23.00;99.90
10441;DHT22;5268;49.346;9.522;2023-08-01T15:58:19;23.10;99.90
10441;DHT22;5268;49.346;9.522;2023-08-01T16:03:21;23.20;99.90
10441;DHT22;5268;49.346;9.522;2023-08-01T16:08:23;23.20;99.90
10441;DHT22;5268;49.346;9.522;2023-08-01T16:13:26;23.10;99.90
10441;DHT22;5268;49.346;9.522;2023-08-01T16:18:28;23.00;99.90
10441;DHT22;5268;49.346;9.522;2023-08-01T16:23:30;22.90;99.90
10441;DHT22;5268;49.346;9.522;2023-08-01T16:28:33;22.90;99.90
10441;DHT22;5268;49.346;9.522;2023-08-01T16:33:35;22.90;99.90
10441;DHT22;5268;49.346;9.522;2023-08-01T16:38:37;22.90;99.90
10441;DHT22;5268;49.346;9.522;2023-08-01T16:43:41;22.80;99.90
10441;DHT22;5268;49.346;9.522;2023-08-01T16:48:43;22.70;99.90
10441;DHT22;5268;49.346;9.522;2023-08-01T16:53:44;22.50;99.90
10441;DHT22;5268;49.346;9.522;2023-08-01T16:58:48;22.40;99.90
10441;DHT22;5268;49.346;9.522;2023-08-01T17:03:51;22.40;99.90
10441;DHT22;5268;49.346;9.522;2023-08-01T17:08:54;22.30;99.90
10441;DHT22;5268;49.346;9.522;2023-08-01T17:14:00;22.20;99.90
10441;DHT22;5268;49.346;9.522;2023-08-01T17:19:03;22.10;99.90
10441;DHT22;5268;49.346;9.522;2023-08-01T17:24:06;22.00;99.90
10441;DHT22;5268;49.346;9.522;2023-08-01T17:29:11;21.90;99.90
10441;DHT22;5268;49.346;9.522;2023-08-01T17:34:16;21.90;99.90
10441;DHT22;5268;49.346;9.522;2023-08-01T17:39:19;21.70;99.90
10441;DHT22;5268;49.346;9.522;2023-08-01T17:44:24;21.60;99.90
10441;DHT22;5268;49.346;9.522;2023-08-01T17:49:26;21.50;99.90
10441;DHT22;5268;49.346;9.522;2023-08-01T17:54:29;21.30;99.90
10441;DHT22;5268;49.346;9.522;2023-08-01T17:59:33;21.00;99.90
10441;DHT22;5268;49.346;9.522;2023-08-01T18:04:41;20.80;99.90
10441;DHT22;5268;49.346;9.522;2023-08-01T18:09:45;20.60;99.90
10441;DHT22;5268;49.346;9.522;2023-08-01T18:14:49;20.40;99.90
10441;DHT22;5268;49.346;9.522;2023-08-01T18:19:51;20.20;99.90
10441;DHT22;5268;49.346;9.522;2023-08-01T18:24:53;20.10;99.90
10441;DHT22;5268;49.346;9.522;2023-08-01T18:29:57;20.00;99.90
10441;DHT22;5268;49.346;9.522;2023-08-01T18:34:58;19.90;99.90
10441;DHT22;5268;49.346;9.522;2023-08-01T18:40:00;19.80;99.90
10441;DHT22;5268;49.346;9.522;2023-08-01T18:45:06;19.80;99.90
10441;DHT22;5268;49.346;9.522;2023-08-01T18:50:09;19.70;99.90
10441;DHT22;5268;49.346;9.522;2023-08-01T18:55:11;19.60;99.90
10441;DHT22;5268;49.346;9.522;2023-08-01T19:00:15;19.50;99.90
10441;DHT22;5268;49.346;9.522;2023-08-01T19:05:16;19.40;99.90
10441;DHT22;5268;49.346;9.522;2023-08-01T19:10:19;19.20;99.90
10441;DHT22;5268;49.346;9.522;2023-08-01T19:15:22;19.10;99.90
10441;DHT22;5268;49.346;9.522;2023-08-01T19:20:24;19.00;99.90
10441;DHT22;5268;49.346;9.522;2023-08-01T19:25:26;18.90;99.90
10441;DHT22;5268;49.346;9.522;2023-08-01T19:30:29;18.70;99.90
10441;DHT22;5268;49.346;9.522;2023-08-01T19:35:39;18.70;99.90
10441;DHT22;5268;49.346;9.522;2023-08-01T19:40:42;18.60;99.90
10441;DHT22;5268;49.346;9.522;2023-08-01T19:45:46;18.60;99.90
10441;DHT22;5268;49.346;9.522;2023-08-01T19:50:48;18.50;99.90
10441;DHT22;5268;49.346;9.522;2023-08-01T19:55:54;18.50;99.90
10441;DHT22;5268;49.346;9.522;2023-08-01T20:00:57;18.40;99.90
10441;DHT22;5268;49.346;9.522;2023-08-01T20:06:01;18.40;99.90
10441;DHT22;5268;49.346;9.522;2023-08-01T20:11:03;18.40;99.90
10441;DHT22;5268;49.346;9.522;2023-08-01T20:16:06;18.30;99.90
10441;DHT22;5268;49.346;9.522;2023-08-01T20:21:08;18.30;99.90
10441;DHT22;5268;49.346;9.522;2023-08-01T20:26:10;18.20;99.90
10441;DHT22;5268;49.346;9.522;2023-08-01T20:31:14;18.20;99.90
10441;DHT22;5268;49.346;9.522;2023-08-01T20:36:16;18.20;99.90
10441;DHT22;5268;49.346;9.522;2023-08-01T20:41:18;18.20;99.90
10441;DHT22;5268;49.346;9.522;2023-08-01T20:46:22;18.10;99.90
10441;DHT22;5268;49.346;9.522;2023-08-01T20:51:24;18.10;99.90
10441;DHT22;5268;49.346;9.522;2023-08-01T20:56:25;18.00;99.90
10441;DHT22;5268;49.346;9.522;2023-08-01T21:01:31;18.00;99.90
10441;DHT22;5268;49.346;9.522;2023-08-01T21:06:33;17.90;99.90
10441;DHT22;5268;49.346;9.522;2023-08-01T21:11:35;17.80;99.90
10441;DHT22;5268;49.346;9.522;2023-08-01T21:16:38;17.80;99.90
10441;DHT22;5268;49.346;9.522;2023-08-01T21:21:40;17.70;99.90
10441;DHT22;5268;49.346;9.522;2023-08-01T21:26:42;17.60;99.90
10441;DHT22;5268;49.346;9.522;2023-08-01T21:31:45;17.60;99.90
10441;DHT22;5268;49.346;9.522;2023-08-01T21:36:49;17.60;99.90
10441;DHT22;5268;49.346;9.522;2023-08-01T21:41:51;17.50;99.90
10441;DHT22;5268;49.346;9.522;2023-08-01T21:46:54;17.40;99.90
10441;DHT22;5268;49.346;9.522;2023-08-01T21:51:56;17.30;99.90
